createdAt,value
2023-02-07T00:04:22.622Z,9.80
2023-02-07T00:09:25.349Z,9.60
2023-02-07T00:14:28.158Z,9.80
2023-02-07T00:19:32.301Z,7.00
2023-02-07T00:24:35.197Z,10.20
2023-02-07T00:29:38.208Z,10.00
2023-02-07T00:34:43.063Z,10.00
2023-02-07T00:39:45.797Z,9.40
2023-02-07T00:44:49.516Z,9.00
2023-02-07T00:49:54.503Z,9.00
2023-02-07T00:54:57.274Z,9.60
2023-02-07T01:00:00.077Z,10.00
2023-02-07T01:05:04.326Z,9.00
2023-02-07T01:10:07.971Z,9.40
2023-02-07T01:15:11.075Z,9.20
2023-02-07T01:20:15.442Z,9.00
2023-02-07T01:25:18.331Z,8.60
2023-02-07T01:30:21.143Z,7.80
2023-02-07T01:35:25.309Z,10.00
2023-02-07T01:40:29.680Z,8.20
2023-02-07T01:45:35.056Z,8.00
2023-02-07T01:50:39.390Z,8.60
2023-02-07T01:55:42.398Z,8.00
2023-02-07T02:00:45.805Z,6.60
2023-02-07T02:05:50.156Z,8.00
2023-02-07T02:11:09.015Z,9.20
2023-02-07T02:16:18.109Z,8.00
2023-02-07T02:22:14.092Z,8.00
2023-02-07T02:27:19.643Z,8.00
2023-02-07T02:32:48.274Z,8.40
2023-02-07T02:37:55.037Z,9.00
2023-02-07T02:43:01.392Z,8.40
2023-02-07T02:48:06.786Z,8.00
2023-02-07T02:53:10.502Z,6.60
2023-02-07T02:58:16.346Z,7.60
2023-02-07T03:03:35.473Z,8.00
2023-02-07T03:08:42.278Z,8.80
2023-02-07T03:13:55.019Z,8.00
2023-02-07T03:19:01.661Z,8.00
2023-02-07T03:24:05.894Z,8.80
2023-02-07T03:29:10.131Z,8.60
2023-02-07T03:34:15.729Z,5.20
2023-02-07T03:39:18.573Z,8.00
2023-02-07T03:44:22.261Z,6.20
2023-02-07T03:49:26.413Z,5.20
2023-02-07T03:54:30.204Z,8.00
2023-02-07T03:59:33.060Z,6.60
2023-02-07T04:04:38.270Z,8.00
2023-02-07T04:09:41.069Z,6.00
2023-02-07T04:14:44.002Z,6.00
2023-02-07T04:19:48.114Z,6.60
2023-02-07T04:24:50.919Z,6.00
2023-02-07T04:29:53.725Z,8.00
2023-02-07T04:34:57.874Z,8.00
2023-02-07T04:40:00.681Z,8.00
2023-02-07T04:45:03.693Z,6.60
2023-02-07T04:50:08.483Z,5.00
2023-02-07T04:55:11.462Z,8.80
2023-02-07T05:00:14.977Z,7.60
2023-02-07T05:05:19.332Z,6.80
2023-02-07T05:10:22.116Z,8.80
2023-02-07T05:15:25.164Z,8.00
2023-02-07T05:20:29.344Z,7.20
2023-02-07T05:25:32.142Z,8.00
2023-02-07T05:30:35.132Z,9.00
2023-02-07T05:35:40.087Z,7.20
2023-02-07T05:40:43.391Z,8.00
2023-02-07T05:45:46.619Z,8.00
2023-02-07T05:50:50.754Z,8.00
2023-02-07T05:55:53.576Z,8.00
2023-02-07T06:00:56.526Z,6.60
2023-02-07T06:06:00.759Z,8.60
2023-02-07T06:11:03.550Z,9.00
2023-02-07T06:16:06.752Z,7.00
2023-02-07T06:21:10.901Z,8.80
2023-02-07T06:26:13.725Z,8.00
2023-02-07T06:31:16.649Z,9.00
2023-02-07T06:36:20.824Z,6.80
2023-02-07T06:41:23.673Z,8.20
2023-02-07T06:46:26.618Z,6.80
2023-02-07T06:51:30.797Z,7.40
2023-02-07T06:56:33.627Z,7.00
2023-02-07T07:01:36.445Z,8.00
2023-02-07T07:06:40.640Z,7.60
2023-02-07T07:11:44.308Z,7.40
2023-02-07T07:16:47.076Z,8.20
2023-02-07T07:21:51.358Z,7.80
2023-02-07T07:26:56.580Z,8.80
2023-02-07T07:31:59.410Z,7.00
2023-02-07T07:37:03.538Z,7.60
2023-02-07T07:42:06.477Z,8.00
2023-02-07T07:47:27.939Z,7.00
2023-02-07T07:52:32.125Z,7.20
2023-02-07T07:57:34.872Z,8.00
2023-02-07T08:02:37.696Z,51.50
2023-02-07T08:07:41.908Z,47.25
2023-02-07T08:12:44.709Z,43.00
2023-02-07T08:17:47.492Z,42.50
2023-02-07T08:22:51.660Z,37.50
2023-02-07T08:27:55.271Z,30.60
2023-02-07T08:32:58.052Z,26.20
2023-02-07T08:38:02.234Z,26.00
2023-02-07T08:43:06.911Z,25.40
2023-02-07T08:48:09.770Z,24.20
2023-02-07T08:53:13.947Z,24.40
2023-02-07T08:58:16.821Z,21.00
2023-02-07T09:03:19.646Z,21.80
2023-02-07T09:08:23.853Z,21.20
2023-02-07T09:13:26.735Z,21.00
2023-02-07T09:18:30.142Z,19.40
2023-02-07T09:23:35.750Z,21.20
2023-02-07T09:28:39.361Z,21.40
2023-02-07T09:33:42.295Z,23.80
2023-02-07T09:38:46.395Z,21.00
2023-02-07T09:43:56.487Z,19.00
2023-02-07T09:49:04.521Z,18.40
2023-02-07T09:54:12.889Z,17.60
2023-02-07T09:59:22.235Z,16.00
2023-02-07T10:04:30.499Z,15.80
2023-02-07T10:09:38.838Z,16.00
2023-02-07T10:14:54.893Z,18.60
2023-02-07T10:20:02.677Z,16.40
2023-02-07T10:25:16.829Z,16.00
2023-02-07T10:30:20.617Z,17.00
2023-02-07T10:35:25.882Z,16.00
2023-02-07T10:40:31.699Z,15.20
2023-02-07T10:45:34.586Z,14.80
2023-02-07T10:50:37.518Z,13.00
2023-02-07T10:55:44.788Z,14.40
2023-02-07T11:00:48.796Z,14.60
2023-02-07T11:05:58.476Z,15.40
2023-02-07T11:11:24.951Z,16.60
2023-02-07T11:16:27.956Z,16.00
2023-02-07T11:21:31.664Z,14.20
2023-02-07T11:26:36.541Z,16.00
2023-02-07T11:31:39.390Z,13.00
2023-02-07T11:36:42.195Z,14.80
2023-02-07T11:41:54.050Z,12.80
2023-02-07T11:46:58.400Z,16.00
2023-02-07T11:52:02.409Z,12.60
2023-02-07T11:57:07.462Z,15.20
2023-02-07T12:02:16.587Z,13.00
2023-02-07T12:07:20.711Z,14.40
2023-02-07T12:12:31.604Z,13.00
2023-02-07T12:17:37.069Z,13.80
2023-02-07T12:22:44.494Z,13.80
2023-02-07T12:27:54.392Z,12.20
2023-02-07T12:33:01.167Z,14.80
2023-02-07T12:38:09.836Z,12.60
2023-02-07T12:43:15.984Z,12.80
2023-02-07T12:48:21.913Z,13.00
2023-02-07T12:53:32.579Z,13.60
2023-02-07T12:58:43.772Z,13.00
2023-02-07T13:04:02.637Z,12.60
2023-02-07T13:09:08.400Z,13.60
2023-02-07T13:14:19.443Z,13.40
2023-02-07T13:19:25.043Z,13.00
2023-02-07T13:24:28.424Z,10.80
2023-02-07T13:29:33.512Z,12.60
2023-02-07T13:34:38.350Z,12.00
2023-02-07T13:39:46.512Z,53.67
2023-02-07T13:44:55.121Z,56.00
2023-02-07T13:50:00.999Z,57.00
2023-02-07T13:55:07.810Z,53.00
2023-02-07T14:00:19.834Z,50.00
2023-02-07T14:05:24.586Z,47.75
2023-02-07T14:10:40.978Z,49.67
2023-02-07T14:16:02.718Z,46.00
2023-02-07T14:21:05.786Z,45.75
2023-02-07T14:26:34.361Z,47.67
2023-02-07T14:31:38.589Z,47.00
2023-02-07T14:36:41.484Z,43.75
2023-02-07T14:41:44.376Z,45.00
2023-02-07T14:46:51.126Z,40.50
2023-02-07T14:51:55.355Z,43.00
2023-02-07T14:57:02.619Z,40.75
2023-02-07T15:02:32.040Z,40.25
2023-02-07T15:07:34.800Z,38.50
2023-02-07T15:12:37.667Z,38.25
2023-02-07T15:17:44.486Z,40.25
2023-02-07T15:22:49.614Z,37.50
2023-02-07T15:28:26.668Z,41.00
2023-02-07T15:33:36.565Z,36.25
2023-02-07T15:38:39.523Z,38.00
2023-02-07T15:43:54.591Z,35.50
2023-02-07T15:48:58.995Z,34.75
2023-02-07T15:54:02.015Z,34.50
2023-02-07T15:59:10.577Z,35.00
2023-02-07T16:04:14.704Z,34.00
2023-02-07T16:09:39.226Z,36.00
2023-02-07T16:14:42.205Z,31.75
2023-02-07T16:19:47.979Z,34.50
2023-02-07T16:24:50.844Z,32.25
2023-02-07T16:29:54.561Z,34.50
2023-02-07T16:35:00.377Z,38.00
2023-02-07T16:40:03.750Z,52.50
2023-02-07T16:45:07.265Z,80.25
2023-02-07T16:50:18.657Z,107.25
2023-02-07T16:55:21.689Z,106.25
2023-02-07T17:00:25.986Z,105.50
2023-02-07T17:05:30.173Z,112.50
2023-02-07T17:10:32.965Z,101.25
2023-02-07T17:15:35.957Z,97.75
2023-02-07T17:20:40.664Z,97.00
2023-02-07T17:25:43.854Z,93.25
2023-02-07T17:30:46.691Z,80.50
2023-02-07T17:35:50.889Z,86.25
2023-02-07T17:40:54.444Z,76.25
2023-02-07T17:45:57.397Z,76.50
2023-02-07T17:51:01.594Z,72.00
2023-02-07T17:56:04.926Z,70.75
2023-02-07T18:01:07.820Z,69.00
2023-02-07T18:06:12.832Z,68.00
2023-02-07T18:11:15.678Z,67.50
2023-02-07T18:16:19.870Z,65.25
2023-02-07T18:21:24.044Z,65.75
2023-02-07T18:26:26.893Z,64.00
2023-02-07T18:31:30.079Z,63.00
2023-02-07T18:36:40.111Z,65.00
2023-02-07T18:41:43.216Z,62.25
2023-02-07T18:46:46.035Z,61.00
2023-02-07T18:51:50.290Z,61.50
2023-02-07T18:56:53.411Z,59.75
2023-02-07T19:01:56.152Z,58.75
2023-02-07T19:07:00.432Z,59.50
2023-02-07T19:12:03.336Z,59.50
2023-02-07T19:17:06.194Z,58.50
2023-02-07T19:22:10.329Z,56.00
2023-02-07T19:27:13.135Z,60.00
2023-02-07T19:32:16.071Z,58.00
2023-02-07T19:37:20.209Z,56.25
2023-02-07T19:42:24.609Z,52.75
2023-02-07T19:47:27.437Z,55.00
2023-02-07T19:52:31.547Z,54.00
2023-02-07T19:57:35.127Z,56.00
2023-02-07T20:02:37.887Z,51.67
2023-02-07T20:07:42.047Z,54.67
2023-02-07T20:12:44.833Z,51.33
2023-02-07T20:17:48.306Z,52.33
2023-02-07T20:22:54.738Z,52.00
2023-02-07T20:27:57.747Z,50.00
2023-02-07T20:33:00.573Z,51.67
2023-02-07T20:38:04.656Z,51.67
2023-02-07T20:43:07.435Z,50.33
2023-02-07T20:48:13.238Z,50.33
2023-02-07T20:53:17.382Z,46.00
2023-02-07T20:58:20.156Z,48.33
2023-02-07T21:03:23.037Z,47.00
2023-02-07T21:08:27.354Z,45.00
2023-02-07T21:13:30.148Z,46.00
2023-02-07T21:18:33.044Z,47.00
2023-02-07T21:23:38.662Z,45.00
2023-02-07T21:28:41.542Z,44.33
2023-02-07T21:33:45.105Z,45.67
2023-02-07T21:38:50.327Z,44.67
2023-02-07T21:43:54.709Z,44.67
2023-02-07T21:49:01.490Z,41.50
2023-02-07T21:54:07.291Z,46.67
2023-02-07T21:59:12.433Z,43.33
2023-02-07T22:04:15.882Z,45.00
2023-02-07T22:09:20.684Z,41.00
2023-02-07T22:14:24.786Z,41.33
2023-02-07T22:19:27.556Z,42.33
2023-02-07T22:24:32.348Z,41.25
2023-02-07T22:29:35.091Z,40.75
2023-02-07T22:34:38.328Z,42.00
2023-02-07T22:39:42.512Z,40.75
2023-02-07T22:44:45.322Z,41.00
2023-02-07T22:49:48.151Z,41.75
2023-02-07T22:54:52.260Z,38.50
2023-02-07T22:59:58.412Z,38.75
2023-02-07T23:05:01.187Z,37.50
2023-02-07T23:10:05.588Z,39.75
2023-02-07T23:15:09.227Z,41.75
2023-02-07T23:20:12.033Z,39.25
2023-02-07T23:25:17.130Z,36.00
2023-02-07T23:30:19.950Z,38.25
2023-02-07T23:35:22.699Z,37.75
2023-02-07T23:40:26.807Z,37.25
2023-02-07T23:45:29.630Z,39.25
2023-02-07T23:50:32.390Z,35.50
2023-02-07T23:55:36.565Z,40.00
